createdAt,value
2019-04-07T00:01:20.662Z,76.73
2019-04-07T00:03:48.339Z,76.74
2019-04-07T00:06:15.670Z,76.62
2019-04-07T00:08:43.268Z,76.49
2019-04-07T00:11:10.584Z,76.75
2019-04-07T00:13:37.469Z,76.54
2019-04-07T00:16:04.656Z,76.40
2019-04-07T00:18:32.051Z,76.13
2019-04-07T00:21:00.278Z,76.11
2019-04-07T00:23:27.020Z,76.63
2019-04-07T00:25:53.862Z,76.50
2019-04-07T00:28:21.155Z,76.99
2019-04-07T00:30:47.991Z,77.05
2019-04-07T00:33:16.419Z,77.09
2019-04-07T00:35:43.609Z,76.82
2019-04-07T00:38:10.655Z,76.62
2019-04-07T00:40:37.379Z,76.56
2019-04-07T00:43:04.533Z,76.49
2019-04-07T00:45:36.057Z,76.47
2019-04-07T00:48:02.809Z,76.06
2019-04-07T00:50:31.672Z,76.14
2019-04-07T00:52:59.040Z,76.12
2019-04-07T00:55:26.282Z,76.33
2019-04-07T00:57:53.607Z,76.35
2019-04-07T01:00:22.032Z,76.26
2019-04-07T01:02:49.215Z,76.16
2019-04-07T01:05:17.176Z,75.94
2019-04-07T01:07:43.940Z,76.07
2019-04-07T01:10:10.999Z,76.02
2019-04-07T01:12:38.394Z,76.07
2019-04-07T01:15:05.483Z,76.38
2019-04-07T01:17:32.223Z,76.41
2019-04-07T01:19:58.957Z,76.12
2019-04-07T01:22:25.780Z,76.07
2019-04-07T01:24:52.664Z,76.13
2019-04-07T01:27:20.409Z,76.25
2019-04-07T01:29:47.564Z,75.91
2019-04-07T01:32:14.794Z,75.50
2019-04-07T01:34:41.744Z,75.48
2019-04-07T01:37:08.769Z,75.65
2019-04-07T01:39:35.808Z,75.47
2019-04-07T01:42:21.380Z,76.04
2019-04-07T01:45:13.996Z,75.83
2019-04-07T01:47:52.318Z,75.58
2019-04-07T01:50:51.794Z,76.01
2019-04-07T01:53:25.661Z,75.79
2019-04-07T01:56:21.774Z,75.73
2019-04-07T01:58:58.310Z,75.84
2019-04-07T02:01:40.468Z,75.55
2019-04-07T02:04:42.471Z,75.56
2019-04-07T02:07:32.575Z,76.19
2019-04-07T02:10:17.654Z,76.42
2019-04-07T02:13:03.175Z,76.33
2019-04-07T02:16:05.020Z,76.46
2019-04-07T02:18:51.390Z,76.66
2019-04-07T02:21:26.163Z,76.71
2019-04-07T02:24:14.663Z,76.53
2019-04-07T02:26:47.195Z,76.31
2019-04-07T02:29:45.885Z,77.11
2019-04-07T02:32:31.317Z,76.83
2019-04-07T02:35:07.570Z,76.47
2019-04-07T02:37:55.354Z,76.75
2019-04-07T02:40:31.361Z,76.66
2019-04-07T02:43:16.275Z,76.27
2019-04-07T02:46:06.474Z,76.50
2019-04-07T02:48:56.338Z,75.58
2019-04-07T02:51:42.067Z,75.62
2019-04-07T02:54:20.666Z,75.90
2019-04-07T02:57:13.263Z,75.88
2019-04-07T02:59:51.383Z,76.25
2019-04-07T03:02:29.136Z,75.89
2019-04-07T03:05:08.976Z,75.80
2019-04-07T03:07:44.551Z,76.16
2019-04-07T03:10:26.322Z,76.18
2019-04-07T03:13:10.993Z,76.46
2019-04-07T03:15:42.885Z,76.48
2019-04-07T03:18:47.112Z,75.96
2019-04-07T03:21:31.078Z,76.24
2019-04-07T03:24:24.459Z,76.62
2019-04-07T03:27:17.873Z,76.96
2019-04-07T03:29:59.582Z,77.37
2019-04-07T03:32:50.654Z,77.90
2019-04-07T03:35:26.593Z,78.82
2019-04-07T03:38:12.146Z,79.55
2019-04-07T03:40:44.313Z,79.70
2019-04-07T03:43:21.544Z,79.19
2019-04-07T03:46:12.765Z,78.66
2019-04-07T03:48:47.985Z,78.46
2019-04-07T03:51:24.354Z,78.05
2019-04-07T03:54:00.667Z,77.70
2019-04-07T03:57:05.285Z,78.46
2019-04-07T03:59:57.893Z,78.54
2019-04-07T04:02:46.861Z,78.36
2019-04-07T04:05:22.164Z,78.30
2019-04-07T04:07:57.986Z,78.42
2019-04-07T04:10:36.948Z,78.81
2019-04-07T04:13:32.722Z,78.87
2019-04-07T04:16:08.662Z,78.88
2019-04-07T04:18:35.753Z,78.60
2019-04-07T04:21:03.533Z,78.11
2019-04-07T04:23:31.710Z,78.17
2019-04-07T04:25:59.067Z,78.26
2019-04-07T04:28:25.964Z,78.38
2019-04-07T04:30:56.565Z,78.98
2019-04-07T04:33:23.648Z,78.33
2019-04-07T04:35:51.941Z,78.18
2019-04-07T04:38:20.631Z,77.62
2019-04-07T04:40:49.368Z,77.71
2019-04-07T04:43:16.363Z,77.70
2019-04-07T04:45:43.079Z,78.25
2019-04-07T04:48:10.285Z,78.29
2019-04-07T04:50:37.382Z,78.12
2019-04-07T04:53:04.835Z,78.00
2019-04-07T04:55:31.971Z,78.08
2019-04-07T04:57:58.977Z,78.52
2019-04-07T05:00:26.661Z,78.65
2019-04-07T05:02:53.723Z,78.74
2019-04-07T05:05:21.205Z,79.78
2019-04-07T05:07:57.786Z,80.50
2019-04-07T05:10:17.139Z,80.89
2019-04-07T05:12:44.595Z,80.40
2019-04-07T05:15:11.994Z,80.37
2019-04-07T05:17:39.041Z,79.40
2019-04-07T05:20:05.914Z,79.20
2019-04-07T05:22:33.288Z,78.92
2019-04-07T05:25:00.136Z,78.63
2019-04-07T05:27:27.585Z,78.25
2019-04-07T05:29:54.595Z,78.02
2019-04-07T05:32:21.359Z,77.43
2019-04-07T05:34:48.853Z,77.31
2019-04-07T05:37:15.596Z,76.91
2019-04-07T05:39:42.581Z,76.58
2019-04-07T05:42:09.279Z,77.04
2019-04-07T05:44:36.413Z,77.13
2019-04-07T05:47:04.032Z,77.32
2019-04-07T05:49:31.396Z,77.53
2019-04-07T05:51:59.552Z,78.01
2019-04-07T05:54:27.492Z,78.13
2019-04-07T05:56:58.699Z,77.83
2019-04-07T05:59:26.383Z,78.51
2019-04-07T06:01:59.280Z,79.39
2019-04-07T06:04:21.822Z,78.83
2019-04-07T06:06:52.535Z,78.33
2019-04-07T06:09:19.028Z,78.30
2019-04-07T06:11:46.436Z,78.21
2019-04-07T06:14:16.694Z,77.83
2019-04-07T06:16:46.919Z,77.65
2019-04-07T06:19:13.912Z,77.52
2019-04-07T06:21:41.549Z,77.87
2019-04-07T06:24:08.981Z,77.85
2019-04-07T06:26:37.120Z,77.81
2019-04-07T06:29:03.994Z,77.59
2019-04-07T06:31:33.276Z,77.76
2019-04-07T06:34:00.705Z,77.70
2019-04-07T06:36:27.565Z,77.50
2019-04-07T06:38:54.765Z,77.44
2019-04-07T06:41:21.819Z,77.19
2019-04-07T06:43:48.619Z,76.87
2019-04-07T06:46:43.968Z,76.44
2019-04-07T06:49:20.701Z,76.85
2019-04-07T06:51:55.976Z,77.54
2019-04-07T06:54:55.995Z,78.52
2019-04-07T06:57:49.730Z,78.87
2019-04-07T07:00:30.114Z,78.09
2019-04-07T07:03:25.664Z,77.51
2019-04-07T07:06:11.217Z,76.81
2019-04-07T07:08:48.511Z,76.88
2019-04-07T07:11:34.770Z,76.57
2019-04-07T07:14:43.296Z,76.47
2019-04-07T07:17:17.476Z,75.49
2019-04-07T07:20:01.718Z,74.90
2019-04-07T07:22:35.700Z,74.98
2019-04-07T07:25:05.208Z,75.28
2019-04-07T07:27:33.770Z,74.66
2019-04-07T07:30:01.246Z,73.91
2019-04-07T07:32:28.197Z,73.51
2019-04-07T07:34:55.275Z,72.86
2019-04-07T07:37:25.273Z,72.18
2019-04-07T07:39:51.952Z,71.26
2019-04-07T07:42:21.502Z,71.01
2019-04-07T07:44:48.266Z,70.79
2019-04-07T07:47:15.383Z,70.57
2019-04-07T07:49:42.427Z,70.08
2019-04-07T07:52:09.404Z,69.97
2019-04-07T07:54:36.754Z,70.00
2019-04-07T07:57:08.867Z,69.65
2019-04-07T07:59:38.975Z,69.31
2019-04-07T08:02:04.839Z,69.18
2019-04-07T08:04:31.618Z,69.40
2019-04-07T08:06:58.989Z,68.89
2019-04-07T08:09:27.085Z,68.86
2019-04-07T08:11:56.700Z,67.81
2019-04-07T08:14:23.516Z,67.36
2019-04-07T08:16:51.078Z,66.87
2019-04-07T08:19:18.995Z,65.81
2019-04-07T08:21:50.461Z,65.64
2019-04-07T08:24:19.168Z,65.54
2019-04-07T08:26:48.720Z,65.10
2019-04-07T08:29:16.909Z,64.99
2019-04-07T08:31:44.833Z,65.03
2019-04-07T08:34:12.090Z,64.71
2019-04-07T08:36:41.949Z,65.27
2019-04-07T08:39:19.420Z,65.03
2019-04-07T08:41:39.706Z,65.19
2019-04-07T08:44:05.100Z,64.71
2019-04-07T08:46:35.598Z,63.98
2019-04-07T08:49:01.785Z,63.49
2019-04-07T08:51:30.787Z,62.64
2019-04-07T08:53:58.551Z,62.80
2019-04-07T08:56:26.601Z,62.41
2019-04-07T08:58:54.397Z,61.73
2019-04-07T09:01:22.034Z,61.84
2019-04-07T09:03:49.638Z,62.44
2019-04-07T09:06:18.510Z,61.49
2019-04-07T09:08:46.163Z,60.93
2019-04-07T09:11:14.746Z,59.76
2019-04-07T09:13:45.216Z,59.62
2019-04-07T09:16:31.211Z,59.11
2019-04-07T09:19:18.186Z,59.07
2019-04-07T09:22:23.315Z,58.91
2019-04-07T09:25:21.536Z,58.82
2019-04-07T09:28:07.620Z,58.29
2019-04-07T09:30:53.628Z,58.64
2019-04-07T09:33:52.834Z,58.62
2019-04-07T09:36:54.548Z,58.93
2019-04-07T09:39:55.411Z,59.02
2019-04-07T09:42:24.378Z,58.82
2019-04-07T09:45:12.811Z,58.97
2019-04-07T09:48:02.861Z,58.67
2019-04-07T09:50:49.577Z,58.84
2019-04-07T09:53:22.981Z,58.89
2019-04-07T09:56:16.231Z,58.74
2019-04-07T09:58:50.331Z,58.98
2019-04-07T10:01:51.818Z,58.64
2019-04-07T10:04:42.287Z,58.68
2019-04-07T10:07:33.408Z,59.00
2019-04-07T10:10:20.125Z,58.73
2019-04-07T10:13:05.511Z,58.58
2019-04-07T10:16:01.022Z,57.92
2019-04-07T10:18:52.230Z,57.54
2019-04-07T10:21:50.892Z,57.34
2019-04-07T10:24:40.439Z,57.84
2019-04-07T10:27:17.616Z,57.21
2019-04-07T10:29:54.543Z,56.98
2019-04-07T10:32:29.419Z,56.80
2019-04-07T10:35:04.673Z,56.84
2019-04-07T10:37:53.031Z,56.61
2019-04-07T10:40:57.770Z,56.95
2019-04-07T10:43:36.973Z,56.27
2019-04-07T10:46:29.395Z,56.34
2019-04-07T10:49:10.357Z,56.02
2019-04-07T10:52:02.805Z,55.95
2019-04-07T10:54:41.511Z,55.27
2019-04-07T10:57:35.423Z,54.71
2019-04-07T11:00:22.645Z,53.71
2019-04-07T11:03:09.647Z,53.71
2019-04-07T11:05:50.391Z,52.78
2019-04-07T11:08:30.881Z,52.38
2019-04-07T11:11:23.248Z,53.00
2019-04-07T11:14:09.613Z,52.57
2019-04-07T11:16:54.853Z,52.77
2019-04-07T11:19:53.360Z,51.90
2019-04-07T11:22:38.467Z,51.91
2019-04-07T11:25:18.365Z,51.68
2019-04-07T11:28:05.333Z,52.10
2019-04-07T11:30:54.556Z,52.40
2019-04-07T11:33:43.884Z,52.59
2019-04-07T11:36:20.103Z,52.85
2019-04-07T11:38:53.453Z,53.33
2019-04-07T11:41:42.373Z,52.40
2019-04-07T11:44:29.270Z,52.06
2019-04-07T11:47:05.206Z,51.44
2019-04-07T11:49:44.714Z,51.33
2019-04-07T11:53:10.947Z,51.27
2019-04-07T11:55:57.663Z,50.95
2019-04-07T11:58:40.849Z,51.56
2019-04-07T12:01:28.167Z,51.22
2019-04-07T12:04:26.286Z,51.05
2019-04-07T12:07:11.169Z,50.80
2019-04-07T12:10:01.129Z,50.25
2019-04-07T12:12:51.598Z,49.55
2019-04-07T12:15:32.308Z,49.24
2019-04-07T12:18:18.611Z,49.32
2019-04-07T12:20:50.752Z,50.12
2019-04-07T12:23:43.309Z,49.34
2019-04-07T12:26:20.561Z,49.51
2019-04-07T12:29:10.790Z,49.89
2019-04-07T12:31:56.502Z,50.42
2019-04-07T12:34:51.947Z,50.54
2019-04-07T12:37:43.747Z,49.80
2019-04-07T12:40:48.625Z,49.87
2019-04-07T12:43:42.818Z,49.42
2019-04-07T12:46:32.165Z,49.69
2019-04-07T12:49:28.554Z,49.58
2019-04-07T12:52:15.147Z,49.33
2019-04-07T12:55:11.970Z,49.81
2019-04-07T12:58:11.727Z,50.15
2019-04-07T13:00:57.771Z,50.27
2019-04-07T13:03:42.681Z,49.14
2019-04-07T13:06:33.270Z,48.02
2019-04-07T13:09:27.832Z,46.91
2019-04-07T13:12:22.349Z,46.43
2019-04-07T13:15:21.653Z,45.66
2019-04-07T13:18:07.024Z,45.78
2019-04-07T13:20:50.271Z,45.85
2019-04-07T13:23:37.086Z,45.85
2019-04-07T13:26:35.711Z,46.38
2019-04-07T13:29:11.810Z,45.85
2019-04-07T13:32:07.642Z,48.77
2019-04-07T13:34:51.035Z,49.68
2019-04-07T13:37:26.513Z,49.80
2019-04-07T13:40:25.259Z,49.39
2019-04-07T13:43:08.769Z,48.84
2019-04-07T13:45:59.798Z,48.39
2019-04-07T13:48:49.865Z,48.29
2019-04-07T13:51:37.766Z,47.80
2019-04-07T13:54:24.293Z,48.25
2019-04-07T13:57:25.900Z,47.43
2019-04-07T14:00:16.991Z,47.11
2019-04-07T14:02:53.332Z,46.61
2019-04-07T14:05:38.949Z,47.17
2019-04-07T14:08:32.371Z,47.49
2019-04-07T14:11:17.664Z,48.02
2019-04-07T14:14:12.821Z,48.69
2019-04-07T14:16:59.572Z,48.16
2019-04-07T14:19:33.275Z,48.38
2019-04-07T14:22:11.189Z,49.71
2019-04-07T14:24:56.722Z,50.58
2019-04-07T14:27:30.910Z,51.22
2019-04-07T14:30:08.872Z,51.45
2019-04-07T14:33:00.138Z,51.60
2019-04-07T14:35:56.425Z,51.63
2019-04-07T14:38:40.205Z,51.68
2019-04-07T14:41:30.243Z,51.90
2019-04-07T14:44:17.119Z,51.94
2019-04-07T14:47:16.149Z,51.80
2019-04-07T14:50:04.881Z,51.77
2019-04-07T14:52:56.678Z,52.03
2019-04-07T14:55:49.568Z,51.92
2019-04-07T14:58:30.306Z,52.01
2019-04-07T15:01:15.826Z,52.09
2019-04-07T15:03:42.868Z,52.30
2019-04-07T15:06:10.899Z,52.52
2019-04-07T15:09:16.567Z,52.85
2019-04-07T15:12:14.725Z,53.15
2019-04-07T15:14:34.352Z,53.11
2019-04-07T15:17:01.314Z,53.25
2019-04-07T15:19:28.848Z,53.19
2019-04-07T15:21:55.752Z,53.60
2019-04-07T15:24:22.818Z,53.71
2019-04-07T15:26:50.241Z,53.49
2019-04-07T15:29:17.142Z,53.44
2019-04-07T15:31:49.046Z,53.49
2019-04-07T15:34:14.386Z,53.40
2019-04-07T15:36:42.817Z,53.43
2019-04-07T15:39:10.963Z,53.74
2019-04-07T15:41:38.282Z,53.82
2019-04-07T15:44:07.007Z,53.64
2019-04-07T15:46:34.431Z,53.81
2019-04-07T15:49:02.695Z,54.03
2019-04-07T15:51:34.108Z,54.05
2019-04-07T15:53:59.361Z,53.95
2019-04-07T15:56:27.157Z,54.04
2019-04-07T15:58:58.206Z,53.68
2019-04-07T16:01:25.727Z,53.86
2019-04-07T16:03:54.723Z,53.40
2019-04-07T16:06:21.543Z,53.34
2019-04-07T16:08:49.877Z,53.38
2019-04-07T16:11:17.746Z,53.25
2019-04-07T16:13:45.520Z,53.22
2019-04-07T16:16:13.525Z,52.80
2019-04-07T16:18:43.085Z,52.47
2019-04-07T16:21:11.150Z,51.84
2019-04-07T16:23:38.124Z,51.14
2019-04-07T16:26:05.244Z,50.52
2019-04-07T16:28:33.056Z,49.72
2019-04-07T16:30:59.854Z,49.30
2019-04-07T16:33:27.226Z,48.92
2019-04-07T16:35:56.331Z,49.57
2019-04-07T16:38:23.149Z,50.47
2019-04-07T16:40:50.214Z,50.49
2019-04-07T16:43:18.884Z,51.14
2019-04-07T16:45:50.644Z,51.64
2019-04-07T16:48:17.600Z,51.98
2019-04-07T16:50:45.145Z,52.51
2019-04-07T16:53:12.281Z,52.92
2019-04-07T16:55:41.636Z,53.24
2019-04-07T16:58:14.303Z,53.54
2019-04-07T17:00:41.881Z,54.04
2019-04-07T17:03:09.892Z,54.53
2019-04-07T17:05:37.574Z,54.97
2019-04-07T17:08:05.389Z,55.41
2019-04-07T17:10:35.078Z,55.83
2019-04-07T17:13:09.237Z,56.43
2019-04-07T17:15:30.667Z,56.62
2019-04-07T17:17:58.812Z,57.36
2019-04-07T17:20:28.121Z,57.77
2019-04-07T17:22:58.274Z,58.07
2019-04-07T17:25:25.624Z,58.29
2019-04-07T17:27:53.055Z,58.51
2019-04-07T17:30:24.377Z,58.69
2019-04-07T17:32:53.278Z,59.08
2019-04-07T17:35:21.430Z,59.37
2019-04-07T17:37:50.633Z,59.38
2019-04-07T17:40:19.178Z,59.78
2019-04-07T17:42:48.353Z,59.92
2019-04-07T17:45:46.251Z,60.15
2019-04-07T17:48:25.559Z,61.00
2019-04-07T17:51:08.727Z,61.51
2019-04-07T17:53:57.216Z,61.80
2019-04-07T17:56:40.658Z,62.22
2019-04-07T17:59:37.780Z,62.25
2019-04-07T18:02:30.394Z,62.40
2019-04-07T18:05:27.773Z,62.26
2019-04-07T18:08:17.867Z,62.17
2019-04-07T18:10:57.848Z,62.83
2019-04-07T18:13:49.959Z,63.04
2019-04-07T18:16:46.168Z,63.13
2019-04-07T18:19:42.033Z,63.36
2019-04-07T18:22:22.117Z,63.47
2019-04-07T18:24:54.551Z,63.11
2019-04-07T18:27:41.818Z,63.11
2019-04-07T18:30:33.401Z,63.20
2019-04-07T18:33:09.656Z,62.99
2019-04-07T18:35:53.975Z,63.00
2019-04-07T18:38:45.037Z,63.22
2019-04-07T18:41:25.172Z,63.70
2019-04-07T18:44:21.007Z,64.00
2019-04-07T18:47:15.515Z,64.05
2019-04-07T18:50:20.422Z,64.11
2019-04-07T18:53:07.258Z,64.26
2019-04-07T18:55:52.604Z,64.20
2019-04-07T18:58:31.170Z,64.08
2019-04-07T19:01:12.452Z,64.12
2019-04-07T19:04:06.715Z,64.37
2019-04-07T19:07:02.620Z,64.44
2019-04-07T19:09:35.797Z,64.39
2019-04-07T19:12:23.135Z,64.83
2019-04-07T19:15:28.237Z,64.52
2019-04-07T19:18:27.184Z,64.12
2019-04-07T19:21:20.381Z,63.92
2019-04-07T19:23:53.890Z,63.83
2019-04-07T19:26:41.071Z,63.68
2019-04-07T19:29:28.348Z,63.49
2019-04-07T19:32:15.196Z,63.20
2019-04-07T19:35:03.270Z,63.28
2019-04-07T19:37:43.068Z,63.21
2019-04-07T19:40:29.934Z,63.33
2019-04-07T19:43:16.672Z,63.34
2019-04-07T19:46:00.613Z,63.61
2019-04-07T19:48:47.299Z,63.31
2019-04-07T19:51:38.251Z,62.72
2019-04-07T19:54:40.156Z,62.52
2019-04-07T19:57:44.895Z,62.37
2019-04-07T20:00:34.219Z,62.78
2019-04-07T20:03:28.853Z,63.05
2019-04-07T20:06:15.358Z,63.23
2019-04-07T20:08:53.480Z,63.05
2019-04-07T20:11:43.856Z,62.92
2019-04-07T20:14:28.428Z,63.60
2019-04-07T20:17:04.591Z,64.01
2019-04-07T20:19:55.659Z,64.08
2019-04-07T20:22:39.254Z,63.76
2019-04-07T20:25:26.760Z,63.72
2019-04-07T20:28:04.250Z,64.04
2019-04-07T20:31:02.659Z,64.28
2019-04-07T20:33:35.924Z,64.81
2019-04-07T20:36:24.214Z,64.88
2019-04-07T20:39:32.545Z,65.08
2019-04-07T20:42:05.254Z,65.26
2019-04-07T20:44:59.993Z,65.26
2019-04-07T20:47:49.179Z,65.72
2019-04-07T20:50:46.086Z,65.68
2019-04-07T20:53:40.852Z,65.85
2019-04-07T20:56:27.382Z,65.76
2019-04-07T20:59:12.603Z,65.58
2019-04-07T21:02:05.476Z,66.16
2019-04-07T21:04:50.918Z,66.34
2019-04-07T21:07:23.360Z,66.36
2019-04-07T21:10:14.731Z,66.49
2019-04-07T21:13:02.303Z,67.04
2019-04-07T21:16:03.644Z,67.00
2019-04-07T21:18:49.004Z,67.25
2019-04-07T21:21:29.167Z,67.41
2019-04-07T21:24:19.027Z,67.45
2019-04-07T21:27:10.287Z,67.53
2019-04-07T21:29:47.907Z,67.36
2019-04-07T21:32:33.315Z,68.40
2019-04-07T21:35:19.645Z,68.27
2019-04-07T21:38:06.257Z,67.81
2019-04-07T21:40:55.519Z,67.81
2019-04-07T21:43:38.960Z,68.17
2019-04-07T21:46:13.177Z,68.25
2019-04-07T21:48:49.245Z,68.46
2019-04-07T21:51:46.523Z,68.73
2019-04-07T21:54:24.812Z,69.03
2019-04-07T21:57:26.733Z,69.24
2019-04-07T22:00:12.655Z,69.40
2019-04-07T22:02:48.329Z,69.59
2019-04-07T22:05:26.879Z,70.03
2019-04-07T22:08:12.855Z,70.79
2019-04-07T22:10:36.293Z,71.08
2019-04-07T22:13:05.175Z,71.54
2019-04-07T22:15:43.089Z,71.40
2019-04-07T22:18:00.616Z,71.31
2019-04-07T22:20:27.873Z,70.79
2019-04-07T22:22:59.159Z,70.69
2019-04-07T22:25:30.555Z,70.62
2019-04-07T22:27:59.014Z,70.71
2019-04-07T22:30:26.243Z,71.13
2019-04-07T22:32:54.144Z,71.20
2019-04-07T22:35:21.289Z,71.00
2019-04-07T22:37:49.958Z,71.48
2019-04-07T22:40:17.464Z,71.59
2019-04-07T22:42:45.903Z,72.19
2019-04-07T22:45:13.631Z,72.36
2019-04-07T22:47:40.323Z,72.32
2019-04-07T22:50:07.994Z,72.24
2019-04-07T22:52:34.978Z,72.19
2019-04-07T22:55:05.406Z,72.30
2019-04-07T22:57:31.309Z,72.27
2019-04-07T22:59:58.732Z,72.68
2019-04-07T23:02:25.619Z,73.00
2019-04-07T23:04:52.704Z,73.07
2019-04-07T23:07:20.195Z,73.57
2019-04-07T23:09:47.499Z,73.55
2019-04-07T23:12:16.917Z,73.47
2019-04-07T23:14:44.255Z,73.54
2019-04-07T23:17:12.006Z,73.34
2019-04-07T23:19:38.811Z,73.39
2019-04-07T23:22:05.520Z,73.48
2019-04-07T23:24:32.247Z,73.48
2019-04-07T23:26:59.011Z,73.88
2019-04-07T23:29:26.207Z,73.96
2019-04-07T23:31:53.479Z,74.19
2019-04-07T23:34:21.121Z,74.72
2019-04-07T23:36:47.926Z,75.13
2019-04-07T23:39:15.257Z,75.17
2019-04-07T23:41:45.627Z,75.30
2019-04-07T23:44:12.961Z,75.24
2019-04-07T23:46:39.855Z,75.53
2019-04-07T23:49:06.581Z,75.55
2019-04-07T23:51:33.323Z,75.74
2019-04-07T23:54:07.506Z,75.96
2019-04-07T23:56:35.666Z,75.86
2019-04-07T23:59:02.654Z,76.61
